Etusivu
METAR-TAF:

METAR-TAF

Lentoasemat :

Sønderborg, Tanska

Leveyspiiri: 54-58N, Pituuspiiri: 009-47E, korkeus merenpinnasta: 7 m

Tämänhetkinen sää

Tämä raportti tehtiin 12 minuuttia sitten, kello 14.50 UTC
Tuuli 10 kn lounaasta puuskistuen 22 kn:hen, vaihdellen etelän/lounaan ja lännen välillä
Lämpötila 15°C
Kosteus 44%
Ilmanpaine 997 hPa
Näkyvyys 10 km tai enemmän

METAR: EKSB 061450Z AUTO 23010G22KT 200V280 9999NDV NCD 15/03 Q0997

Aika: 17:02 (15:02 UTC)

Sääennuste

Tämä raportti tehtiin 9 tuntia ja 9 minuuttia sitten, kello 05.53 UTC
Ennuste voimassa 06. päivästä klo 06 UTC - 06. päivään klo 11 UTC
Tuuli 10 kn lännestä/lounaasta
Näkyvyys 10 km tai enemmän
Hajanaisia pilviä 2500 ft:n korkeudessa
Ajoittain
06. päivästä klo 06 UTC - 06. päivään klo 11 UTC
Tuuli 15 kn etelästä/lounaasta puuskistuen 25 kn:hen
Hajanaisia pilviä 2000 ft:n korkeudessa, Cumulonimbus.
vesikuuroja

TAF: EKSB 060553Z 0606/0611 24010KT 9999 SCT025 TEMPO 0606/0611 21015G25KT SHRA SCT020CB

Säähavainnot ja -ennusteet yli 4000 lentoasemalta (METAR- ja TAF-raportit).

Käytössä olevat sääasemat on merkitty karttaan keltaisilla ja punaisilla pisteillä.

Aseta hiiri pisteen päälle nähdäksesi sääaseman nimen.

Klikkaa sitten nähdäksesi säähavainnot ja -ennusteet.

Kartan vaihtaminen: klikkaa mustalla rastilla varustettuja vihreitä pisteitä, niin voit zoomata sisään; viivalla varustettua vihreää pistettä, niin voit zoomata ulos tai vihreitä nuolia, niin pääset viereisille kartoille.


METAR-TAF: